Jena Marie C. — WDD4969 — position and weather

sailwx.info

Track history (hours):
 
Tides and Currents Weather Stations Pressure Air Temp Water Temp Dewpoint Dewpoint Depression Visibility Wind Speed Wind Dir Waves Ship Positions

Jena Marie C.

Owner: Scott C. Marine Towing, LLC, Marrero, LA. More information available from US FCC via Universal Licensing System and Coast Guard Vessel Documentation Center.

Last reported at 2016-Apr-29 23:33 UTC. Time now 2016-Apr-29 23:39 UTC.
Position N 29°57' W 090°04'.

Length 19 m; draft 2.5 m.

Type: Towing. MMSI: 367151880.

Date/timePositionNaut miles runAvg speedWind from/ knotsBaromVisibWave heightAir tempDewpointWater temp
2016-Apr-29 23:33N 29°57' W 090°04'2 2.2
2016-Apr-29 22:33N 29°58' W 090°02'0 0.5
2016-Apr-29 21:33N 29°58' W 090°01'0 0.0
2016-Apr-29 20:33N 29°58' W 090°01'1 0.9
2016-Apr-29 19:33N 29°59' W 090°01'1 0.6
2016-Apr-29 18:33N 29°60' W 090°01'0 0.0
2016-Apr-29 17:33N 29°60' W 090°01'0 0.0
2016-Apr-29 16:33N 29°60' W 090°01'0 0.0
2016-Apr-29 15:33N 29°60' W 090°01'0 0.0
2016-Apr-29 14:33N 29°60' W 090°01'0 0.0
2016-Apr-29 13:33N 29°60' W 090°01'0 0.0
2016-Apr-29 12:33N 29°60' W 090°01'0 0.0
2016-Apr-29 11:33N 29°60' W 090°01'0 0.4
2016-Apr-29 10:33N 29°60' W 090°00'6 0.2
2016-Apr-28 03:19N 30°01' W 089°54'5 6.5
2016-Apr-28 02:33N 29°60' W 089°59'3 2.9
2016-Apr-28 01:33N 29°58' W 090°02'0 0.4
2016-Apr-28 00:33N 29°57' W 090°02'4 3.4
2016-Apr-27 23:30N 29°55' W 090°05'1 0.6
2016-Apr-27 22:26N 29°55' W 090°04'0 0.3
2016-Apr-27 21:33N 29°55' W 090°04'3 2.8
2016-Apr-27 20:33N 29°54' W 090°07'0 0.0
2016-Apr-27 19:12N 29°54' W 090°07'0 0.0
2016-Apr-27 18:31N 29°54' W 090°07'0 0.0
2016-Apr-27 17:33N 29°54' W 090°07'0 0.0
2016-Apr-27 16:33N 29°54' W 090°07'0 0.0
2016-Apr-27 15:33N 29°54' W 090°07'0 0.4
2016-Apr-27 14:33N 29°54' W 090°07'0 0.0
2016-Apr-27 13:33N 29°54' W 090°07'0 0.0
2016-Apr-27 12:33N 29°54' W 090°07'0 0.0
2016-Apr-27 11:33N 29°54' W 090°07'0 0.5
2016-Apr-27 10:33N 29°54' W 090°07'0 0.0
2016-Apr-27 09:33N 29°54' W 090°07'0 0.0
2016-Apr-27 08:33N 29°54' W 090°07'0 0.4
2016-Apr-27 07:33N 29°55' W 090°07'5 4.8
2016-Apr-27 06:33N 29°57' W 090°02'3 3.4
2016-Apr-27 05:33N 29°60' W 089°59'3 0.1
2016-Apr-26 09:31N 30°00' W 089°56'4 4.4
2016-Apr-26 08:33N 29°59' W 090°01'2 2.3
2016-Apr-26 07:34N 29°57' W 090°02'0 0.1
2016-Apr-26 06:33N 29°57' W 090°02'0 0.0
2016-Apr-26 05:34N 29°57' W 090°02'0 0.0
2016-Apr-26 04:34N 29°57' W 090°02'0 0.0
2016-Apr-26 03:34N 29°57' W 090°02'0 0.0
2016-Apr-26 02:34N 29°57' W 090°02'0 0.0
2016-Apr-26 01:33N 29°57' W 090°02'0 0.0
2016-Apr-26 00:34N 29°57' W 090°02'0 0.0
2016-Apr-25 23:34N 29°57' W 090°02'0 0.0
2016-Apr-25 22:34N 29°57' W 090°02'0 0.0
2016-Apr-25 21:34N 29°57' W 090°02'0 0.1
2016-Apr-25 20:34N 29°57' W 090°02'1 1.0
2016-Apr-25 19:33N 29°58' W 090°03'2 2.2
2016-Apr-25 18:34N 29°56' W 090°04'0 0.0
2016-Apr-25 17:34N 29°56' W 090°04'3 3.5
2016-Apr-25 16:34N 29°54' W 090°07'0 0.0
2016-Apr-25 15:34N 29°54' W 090°07'0 0.0
2016-Apr-25 14:34N 29°54' W 090°07'0 0.4
2016-Apr-25 13:33N 29°54' W 090°07'0 0.0
2016-Apr-25 12:34N 29°54' W 090°07'0 0.0
2016-Apr-25 11:33N 29°54' W 090°07'0 0.0
2016-Apr-25 10:34N 29°54' W 090°07'0 0.0
2016-Apr-25 09:34N 29°54' W 090°07'0 0.0
2016-Apr-25 08:34N 29°54' W 090°07'0 0.0
2016-Apr-25 07:34N 29°54' W 090°07'0 0.0
2016-Apr-25 06:34N 29°54' W 090°07'0 0.0
2016-Apr-25 05:34N 29°54' W 090°07'0 0.0
2016-Apr-25 04:34N 29°54' W 090°07'0 0.0
2016-Apr-25 03:33N 29°54' W 090°07'0 0.0
2016-Apr-25 02:34N 29°54' W 090°07'0 0.0
2016-Apr-25 01:34N 29°54' W 090°07'0 0.0
2016-Apr-25 00:34N 29°54' W 090°07'0 0.0
2016-Apr-24 23:34N 29°54' W 090°07'0 0.0
2016-Apr-24 22:34N 29°54' W 090°07'0 0.0
2016-Apr-24 21:34N 29°54' W 090°07'0 0.0
2016-Apr-24 20:34N 29°54' W 090°07'0 0.0
2016-Apr-24 19:34N 29°54' W 090°07'0 0.0
2016-Apr-24 18:34N 29°54' W 090°07'0 0.0
2016-Apr-24 17:34N 29°54' W 090°07'0 0.0
2016-Apr-24 16:33N 29°54' W 090°07'2 1.5
2016-Apr-24 15:34N 29°55' W 090°05'2 1.5
2016-Apr-24 14:34N 29°54' W 090°07'0 0.0
2016-Apr-24 13:34N 29°54' W 090°07'0 0.0
2016-Apr-24 12:34N 29°54' W 090°07'0 0.0
2016-Apr-24 11:33N 29°54' W 090°07'0 0.0
2016-Apr-24 10:33N 29°54' W 090°07'0 0.0
2016-Apr-24 09:33N 29°54' W 090°07'0 0.0
2016-Apr-24 08:33N 29°54' W 090°07'0 0.0
2016-Apr-24 07:33N 29°54' W 090°07'0 0.0
2016-Apr-24 06:33N 29°54' W 090°07'0 0.0
2016-Apr-24 05:33N 29°54' W 090°07'0 0.0
2016-Apr-24 04:33N 29°54' W 090°07'0 0.0
2016-Apr-24 03:33N 29°54' W 090°07'0 0.1
2016-Apr-24 02:33N 29°54' W 090°07'0 0.0
2016-Apr-24 01:33N 29°54' W 090°07'0 0.0
2016-Apr-24 00:33N 29°54' W 090°07'0 0.0
2016-Apr-23 23:34N 29°54' W 090°07'0 0.0
2016-Apr-23 22:33N 29°54' W 090°07'0 0.0
2016-Apr-23 21:33N 29°54' W 090°07'0 0.0
2016-Apr-23 20:33N 29°54' W 090°07'0 0.0
2016-Apr-23 19:33N 29°54' W 090°07'0 0.0
2016-Apr-23 18:33N 29°54' W 090°07'0 0.0
2016-Apr-23 17:33N 29°54' W 090°07'0 0.0
2016-Apr-23 16:33N 29°54' W 090°07'0 0.0
2016-Apr-23 15:33N 29°54' W 090°07'0 0.0
2016-Apr-23 14:33N 29°54' W 090°07'0 0.0
2016-Apr-23 13:31N 29°54' W 090°07'0 0.0
2016-Apr-23 12:33N 29°54' W 090°07'0 0.0
2016-Apr-23 11:33N 29°54' W 090°07'0 0.0
2016-Apr-23 10:33N 29°54' W 090°07'0 0.0
2016-Apr-23 09:33N 29°54' W 090°07'0 0.0
2016-Apr-23 08:33N 29°54' W 090°07'0 0.0
2016-Apr-23 07:33N 29°54' W 090°07'0 0.0
2016-Apr-23 06:33N 29°54' W 090°07'0 0.0
2016-Apr-23 05:33N 29°54' W 090°07'0 0.0
2016-Apr-23 04:33N 29°54' W 090°07'0 0.0
2016-Apr-23 03:33N 29°54' W 090°07'0 0.0
2016-Apr-23 02:33N 29°54' W 090°07'0 0.0
2016-Apr-23 01:33N 29°54' W 090°07'1 1.0
2016-Apr-23 00:33N 29°55' W 090°06'5 4.5
2016-Apr-22 23:33N 29°57' W 090°01'3 3.1
2016-Apr-22 22:31N 29°55' W 089°58'0 0.0
2016-Apr-22 21:33N 29°55' W 089°58'4 4.5
2016-Apr-22 20:33N 29°51' W 090°01'3 3.0
2016-Apr-22 19:33N 29°53' W 090°04'1 1.1
2016-Apr-22 18:33N 29°54' W 090°05'0 0.0
2016-Apr-22 17:33N 29°54' W 090°05'0 0.0
2016-Apr-22 16:33N 29°54' W 090°05'0 0.0
2016-Apr-22 15:33N 29°54' W 090°05'0 0.0
2016-Apr-22 14:33N 29°54' W 090°05'0 0.0
2016-Apr-22 13:33N 29°54' W 090°05'0 0.0
2016-Apr-22 12:33N 29°54' W 090°05'0 0.0
2016-Apr-22 11:33N 29°54' W 090°05'0 0.0
2016-Apr-22 10:33N 29°54' W 090°05'0 0.0
2016-Apr-22 09:33N 29°54' W 090°05'0 0.0
2016-Apr-22 08:33N 29°54' W 090°05'0 0.0
2016-Apr-22 07:33N 29°54' W 090°05'0 0.0
2016-Apr-22 06:33N 29°54' W 090°05'0 0.0
2016-Apr-22 05:33N 29°54' W 090°05'0 0.0
2016-Apr-22 04:33N 29°54' W 090°05'0 0.0
2016-Apr-22 03:33N 29°54' W 090°05'0 0.0
2016-Apr-22 02:33N 29°54' W 090°05'0 0.0
2016-Apr-22 01:33N 29°54' W 090°05'0 0.0
2016-Apr-22 00:33N 29°54' W 090°05'0 0.0
2016-Apr-21 23:33N 29°54' W 090°05'0 0.0
2016-Apr-21 22:33N 29°54' W 090°05'0 0.0
2016-Apr-21 21:33N 29°54' W 090°05'0 0.0
2016-Apr-21 20:33N 29°54' W 090°05'3 2.9
2016-Apr-21 19:33N 29°51' W 090°04'4 3.9
2016-Apr-21 18:33N 29°53' W 090°00'2 2.5
2016-Apr-21 17:33N 29°55' W 089°58'0 0.0
2016-Apr-21 16:23N 29°55' W 089°58'0 0.0
2016-Apr-21 15:33N 29°55' W 089°58'5 5.1
2016-Apr-21 14:33N 29°57' W 090°04'4 4.1
2016-Apr-21 13:33N 29°54' W 090°07'0 0.0
2016-Apr-21 12:33N 29°54' W 090°07'0 0.0
2016-Apr-21 11:33N 29°54' W 090°07'0 0.0
2016-Apr-21 10:33N 29°54' W 090°07'0 0.0
2016-Apr-21 09:33N 29°54' W 090°07'0 0.0
2016-Apr-21 08:33N 29°54' W 090°07'0 0.0
2016-Apr-21 07:33N 29°54' W 090°07'4 3.9
2016-Apr-21 06:33N 29°57' W 090°03'2 2.2
2016-Apr-21 05:33N 29°55' W 090°05'2 2.0
2016-Apr-21 04:33N 29°55' W 090°07'1 0.6
2016-Apr-21 03:33N 29°55' W 090°08'1 0.8
2016-Apr-21 02:33N 29°55' W 090°07'1 1.2
2016-Apr-21 01:33N 29°55' W 090°05'2 1.6
2016-Apr-21 00:33N 29°55' W 090°07'3 3.3
2016-Apr-20 23:33N 29°57' W 090°09'3 3.5
2016-Apr-20 22:33N 29°55' W 090°07'0 0.3
2016-Apr-20 21:33N 29°54' W 090°07'0 0.1
2016-Apr-20 20:33N 29°54' W 090°07'0 0.0
2016-Apr-20 19:33N 29°54' W 090°07'0 0.0
2016-Apr-20 18:33N 29°54' W 090°07'0 0.0
2016-Apr-20 17:33N 29°54' W 090°07'0 0.3
2016-Apr-20 16:33N 29°54' W 090°07'0 0.0
2016-Apr-20 15:33N 29°54' W 090°07'0 0.1
2016-Apr-20 14:33N 29°54' W 090°07'0 0.4
2016-Apr-20 13:33N 29°54' W 090°07'0 0.0
2016-Apr-20 12:33N 29°54' W 090°07'0 0.0
2016-Apr-20 11:33N 29°54' W 090°07'0 0.0
2016-Apr-20 10:34N 29°54' W 090°07'0 0.0
2016-Apr-20 09:34N 29°54' W 090°07'0 0.0
2016-Apr-20 08:33N 29°54' W 090°07'0 0.0
2016-Apr-20 07:34N 29°54' W 090°07'  
Track history (hours):
 
Tides and Currents Weather Stations Pressure Air Temp Water Temp Dewpoint Dewpoint Depression Visibility Wind Speed Wind Dir Waves Ship Positions

Jena Marie C.

Owner: Scott C. Marine Towing, LLC, Marrero, LA. More information available from US FCC via Universal Licensing System and Coast Guard Vessel Documentation Center.

Last reported at 2016-Apr-29 23:33 UTC. Time now 2016-Apr-29 23:39 UTC.
Position N 29°57' W 090°04'.

Length 19 m; draft 2.5 m.

Type: Towing. MMSI: 367151880.

Date/timePositionNaut miles runAvg speedWind from/ knotsBaromVisibWave heightAir tempDewpointWater temp
2016-Apr-29 23:33N 29°57' W 090°04'2 2.2
2016-Apr-29 22:33N 29°58' W 090°02'0 0.5
2016-Apr-29 21:33N 29°58' W 090°01'0 0.0
2016-Apr-29 20:33N 29°58' W 090°01'1 0.9
2016-Apr-29 19:33N 29°59' W 090°01'1 0.6
2016-Apr-29 18:33N 29°60' W 090°01'0 0.0
2016-Apr-29 17:33N 29°60' W 090°01'0 0.0
2016-Apr-29 16:33N 29°60' W 090°01'0 0.0
2016-Apr-29 15:33N 29°60' W 090°01'0 0.0
2016-Apr-29 14:33N 29°60' W 090°01'0 0.0
2016-Apr-29 13:33N 29°60' W 090°01'0 0.0
2016-Apr-29 12:33N 29°60' W 090°01'0 0.0
2016-Apr-29 11:33N 29°60' W 090°01'0 0.4
2016-Apr-29 10:33N 29°60' W 090°00'6 0.2
2016-Apr-28 03:19N 30°01' W 089°54'5 6.5
2016-Apr-28 02:33N 29°60' W 089°59'3 2.9
2016-Apr-28 01:33N 29°58' W 090°02'0 0.4
2016-Apr-28 00:33N 29°57' W 090°02'4 3.4
2016-Apr-27 23:30N 29°55' W 090°05'1 0.6
2016-Apr-27 22:26N 29°55' W 090°04'0 0.3
2016-Apr-27 21:33N 29°55' W 090°04'3 2.8
2016-Apr-27 20:33N 29°54' W 090°07'0 0.0
2016-Apr-27 19:12N 29°54' W 090°07'0 0.0
2016-Apr-27 18:31N 29°54' W 090°07'0 0.0
2016-Apr-27 17:33N 29°54' W 090°07'0 0.0
2016-Apr-27 16:33N 29°54' W 090°07'0 0.0
2016-Apr-27 15:33N 29°54' W 090°07'0 0.4
2016-Apr-27 14:33N 29°54' W 090°07'0 0.0
2016-Apr-27 13:33N 29°54' W 090°07'0 0.0
2016-Apr-27 12:33N 29°54' W 090°07'0 0.0
2016-Apr-27 11:33N 29°54' W 090°07'0 0.5
2016-Apr-27 10:33N 29°54' W 090°07'0 0.0
2016-Apr-27 09:33N 29°54' W 090°07'0 0.0
2016-Apr-27 08:33N 29°54' W 090°07'0 0.4
2016-Apr-27 07:33N 29°55' W 090°07'5 4.8
2016-Apr-27 06:33N 29°57' W 090°02'3 3.4
2016-Apr-27 05:33N 29°60' W 089°59'3 0.1
2016-Apr-26 09:31N 30°00' W 089°56'4 4.4
2016-Apr-26 08:33N 29°59' W 090°01'2 2.3
2016-Apr-26 07:34N 29°57' W 090°02'0 0.1
2016-Apr-26 06:33N 29°57' W 090°02'0 0.0
2016-Apr-26 05:34N 29°57' W 090°02'0 0.0
2016-Apr-26 04:34N 29°57' W 090°02'0 0.0
2016-Apr-26 03:34N 29°57' W 090°02'0 0.0
2016-Apr-26 02:34N 29°57' W 090°02'0 0.0
2016-Apr-26 01:33N 29°57' W 090°02'0 0.0
2016-Apr-26 00:34N 29°57' W 090°02'0 0.0
2016-Apr-25 23:34N 29°57' W 090°02'0 0.0
2016-Apr-25 22:34N 29°57' W 090°02'0 0.0
2016-Apr-25 21:34N 29°57' W 090°02'0 0.1
2016-Apr-25 20:34N 29°57' W 090°02'1 1.0
2016-Apr-25 19:33N 29°58' W 090°03'2 2.2
2016-Apr-25 18:34N 29°56' W 090°04'0 0.0
2016-Apr-25 17:34N 29°56' W 090°04'3 3.5
2016-Apr-25 16:34N 29°54' W 090°07'0 0.0
2016-Apr-25 15:34N 29°54' W 090°07'0 0.0
2016-Apr-25 14:34N 29°54' W 090°07'0 0.4
2016-Apr-25 13:33N 29°54' W 090°07'0 0.0
2016-Apr-25 12:34N 29°54' W 090°07'0 0.0
2016-Apr-25 11:33N 29°54' W 090°07'0 0.0
2016-Apr-25 10:34N 29°54' W 090°07'0 0.0
2016-Apr-25 09:34N 29°54' W 090°07'0 0.0
2016-Apr-25 08:34N 29°54' W 090°07'0 0.0
2016-Apr-25 07:34N 29°54' W 090°07'0 0.0
2016-Apr-25 06:34N 29°54' W 090°07'0 0.0
2016-Apr-25 05:34N 29°54' W 090°07'0 0.0
2016-Apr-25 04:34N 29°54' W 090°07'0 0.0
2016-Apr-25 03:33N 29°54' W 090°07'0 0.0
2016-Apr-25 02:34N 29°54' W 090°07'0 0.0
2016-Apr-25 01:34N 29°54' W 090°07'0 0.0
2016-Apr-25 00:34N 29°54' W 090°07'0 0.0
2016-Apr-24 23:34N 29°54' W 090°07'0 0.0
2016-Apr-24 22:34N 29°54' W 090°07'0 0.0
2016-Apr-24 21:34N 29°54' W 090°07'0 0.0
2016-Apr-24 20:34N 29°54' W 090°07'0 0.0
2016-Apr-24 19:34N 29°54' W 090°07'0 0.0
2016-Apr-24 18:34N 29°54' W 090°07'0 0.0
2016-Apr-24 17:34N 29°54' W 090°07'0 0.0
2016-Apr-24 16:33N 29°54' W 090°07'2 1.5
2016-Apr-24 15:34N 29°55' W 090°05'2 1.5
2016-Apr-24 14:34N 29°54' W 090°07'0 0.0
2016-Apr-24 13:34N 29°54' W 090°07'0 0.0
2016-Apr-24 12:34N 29°54' W 090°07'0 0.0
2016-Apr-24 11:33N 29°54' W 090°07'0 0.0
2016-Apr-24 10:33N 29°54' W 090°07'0 0.0
2016-Apr-24 09:33N 29°54' W 090°07'0 0.0
2016-Apr-24 08:33N 29°54' W 090°07'0 0.0
2016-Apr-24 07:33N 29°54' W 090°07'0 0.0
2016-Apr-24 06:33N 29°54' W 090°07'0 0.0
2016-Apr-24 05:33N 29°54' W 090°07'0 0.0
2016-Apr-24 04:33N 29°54' W 090°07'0 0.0
2016-Apr-24 03:33N 29°54' W 090°07'0 0.1
2016-Apr-24 02:33N 29°54' W 090°07'0 0.0
2016-Apr-24 01:33N 29°54' W 090°07'0 0.0
2016-Apr-24 00:33N 29°54' W 090°07'0 0.0
2016-Apr-23 23:34N 29°54' W 090°07'0 0.0
2016-Apr-23 22:33N 29°54' W 090°07'0 0.0
2016-Apr-23 21:33N 29°54' W 090°07'0 0.0
2016-Apr-23 20:33N 29°54' W 090°07'0 0.0
2016-Apr-23 19:33N 29°54' W 090°07'0 0.0
2016-Apr-23 18:33N 29°54' W 090°07'0 0.0
2016-Apr-23 17:33N 29°54' W 090°07'0 0.0
2016-Apr-23 16:33N 29°54' W 090°07'0 0.0
2016-Apr-23 15:33N 29°54' W 090°07'0 0.0
2016-Apr-23 14:33N 29°54' W 090°07'0 0.0
2016-Apr-23 13:31N 29°54' W 090°07'0 0.0
2016-Apr-23 12:33N 29°54' W 090°07'0 0.0
2016-Apr-23 11:33N 29°54' W 090°07'0 0.0
2016-Apr-23 10:33N 29°54' W 090°07'0 0.0
2016-Apr-23 09:33N 29°54' W 090°07'0 0.0
2016-Apr-23 08:33N 29°54' W 090°07'0 0.0
2016-Apr-23 07:33N 29°54' W 090°07'0 0.0
2016-Apr-23 06:33N 29°54' W 090°07'0 0.0
2016-Apr-23 05:33N 29°54' W 090°07'0 0.0
2016-Apr-23 04:33N 29°54' W 090°07'0 0.0
2016-Apr-23 03:33N 29°54' W 090°07'0 0.0
2016-Apr-23 02:33N 29°54' W 090°07'0 0.0
2016-Apr-23 01:33N 29°54' W 090°07'1 1.0
2016-Apr-23 00:33N 29°55' W 090°06'5 4.5
2016-Apr-22 23:33N 29°57' W 090°01'3 3.1
2016-Apr-22 22:31N 29°55' W 089°58'0 0.0
2016-Apr-22 21:33N 29°55' W 089°58'4 4.5
2016-Apr-22 20:33N 29°51' W 090°01'3 3.0
2016-Apr-22 19:33N 29°53' W 090°04'1 1.1
2016-Apr-22 18:33N 29°54' W 090°05'0 0.0
2016-Apr-22 17:33N 29°54' W 090°05'0 0.0
2016-Apr-22 16:33N 29°54' W 090°05'0 0.0
2016-Apr-22 15:33N 29°54' W 090°05'0 0.0
2016-Apr-22 14:33N 29°54' W 090°05'0 0.0
2016-Apr-22 13:33N 29°54' W 090°05'0 0.0
2016-Apr-22 12:33N 29°54' W 090°05'0 0.0
2016-Apr-22 11:33N 29°54' W 090°05'0 0.0
2016-Apr-22 10:33N 29°54' W 090°05'0 0.0
2016-Apr-22 09:33N 29°54' W 090°05'0 0.0
2016-Apr-22 08:33N 29°54' W 090°05'0 0.0
2016-Apr-22 07:33N 29°54' W 090°05'0 0.0
2016-Apr-22 06:33N 29°54' W 090°05'0 0.0
2016-Apr-22 05:33N 29°54' W 090°05'0 0.0
2016-Apr-22 04:33N 29°54' W 090°05'0 0.0
2016-Apr-22 03:33N 29°54' W 090°05'0 0.0
2016-Apr-22 02:33N 29°54' W 090°05'0 0.0
2016-Apr-22 01:33N 29°54' W 090°05'0 0.0
2016-Apr-22 00:33N 29°54' W 090°05'0 0.0
2016-Apr-21 23:33N 29°54' W 090°05'0 0.0
2016-Apr-21 22:33N 29°54' W 090°05'0 0.0
2016-Apr-21 21:33N 29°54' W 090°05'0 0.0
2016-Apr-21 20:33N 29°54' W 090°05'3 2.9
2016-Apr-21 19:33N 29°51' W 090°04'4 3.9
2016-Apr-21 18:33N 29°53' W 090°00'2 2.5
2016-Apr-21 17:33N 29°55' W 089°58'0 0.0
2016-Apr-21 16:23N 29°55' W 089°58'0 0.0
2016-Apr-21 15:33N 29°55' W 089°58'5 5.1
2016-Apr-21 14:33N 29°57' W 090°04'4 4.1
2016-Apr-21 13:33N 29°54' W 090°07'0 0.0
2016-Apr-21 12:33N 29°54' W 090°07'0 0.0
2016-Apr-21 11:33N 29°54' W 090°07'0 0.0
2016-Apr-21 10:33N 29°54' W 090°07'0 0.0
2016-Apr-21 09:33N 29°54' W 090°07'0 0.0
2016-Apr-21 08:33N 29°54' W 090°07'0 0.0
2016-Apr-21 07:33N 29°54' W 090°07'4 3.9
2016-Apr-21 06:33N 29°57' W 090°03'2 2.2
2016-Apr-21 05:33N 29°55' W 090°05'2 2.0
2016-Apr-21 04:33N 29°55' W 090°07'1 0.6
2016-Apr-21 03:33N 29°55' W 090°08'1 0.8
2016-Apr-21 02:33N 29°55' W 090°07'1 1.2
2016-Apr-21 01:33N 29°55' W 090°05'2 1.6
2016-Apr-21 00:33N 29°55' W 090°07'3 3.3
2016-Apr-20 23:33N 29°57' W 090°09'3 3.5
2016-Apr-20 22:33N 29°55' W 090°07'0 0.3
2016-Apr-20 21:33N 29°54' W 090°07'0 0.1
2016-Apr-20 20:33N 29°54' W 090°07'0 0.0
2016-Apr-20 19:33N 29°54' W 090°07'0 0.0
2016-Apr-20 18:33N 29°54' W 090°07'0 0.0
2016-Apr-20 17:33N 29°54' W 090°07'0 0.3
2016-Apr-20 16:33N 29°54' W 090°07'0 0.0
2016-Apr-20 15:33N 29°54' W 090°07'0 0.1
2016-Apr-20 14:33N 29°54' W 090°07'0 0.4
2016-Apr-20 13:33N 29°54' W 090°07'0 0.0
2016-Apr-20 12:33N 29°54' W 090°07'0 0.0
2016-Apr-20 11:33N 29°54' W 090°07'0 0.0
2016-Apr-20 10:34N 29°54' W 090°07'0 0.0
2016-Apr-20 09:34N 29°54' W 090°07'0 0.0
2016-Apr-20 08:33N 29°54' W 090°07'0 0.0
2016-Apr-20 07:34N 29°54' W 090°07'  

Dump ship's entire track history